Eagle River, AK (99577)

9:55 PM AKDT on July 23, 2016 (GMT -0800)
Chatanika Loop | | Change Station

Elev 590 ft 61.32 °N, 149.54 °W | Updated 2 minutes ago

Overcast
Overcast
61.5 °F
Feels Like 61.5 °F
N
1.0
Wind Variable Wind from East
Gusts 3.0 mph

Today
High -- | Low -- °F
--% Chance of Precip.
Yesterday
High -- | Low -- °F
Precip. -- in
Pressure 29.58 in
Visibility 10.0 miles
Clouds Mostly Cloudy 6000 ft
Overcast 8500 ft
Dew Point 54 °F
Humidity 75%
Rainfall 0.03 in
Snow Depth Not available.
5:08 AM 10:58 PM
Waning Gibbous, 79% visible
METAR PAFR 240534Z AUTO 00000KT 10SM BKN060 OVC085 18/12 A2958 RMK AO1
Pressure 29.58 in
Visibility 10.0 miles
Clouds Mostly Cloudy 6000 ft
Overcast 8500 ft
Dew Point 54 °F
Humidity 75%
Rainfall 0.03 in
Snow Depth Not available.
5:08 AM 10:58 PM
Waning Gibbous, 79% visible
METAR PAFR 240534Z AUTO 00000KT 10SM BKN060 OVC085 18/12 A2958 RMK AO1

10-Day Weather Forecast

Almanac

Astronomy

Jul. 23, 2016 Rise Set
Actual Time
Civil Twilight
Nautical Twilight
Astronomical Twilight
Moon
Length of Visible Light
Length of Day
Tomorrow will be .
, % of the Moon is Illuminated

Today's Extremes

State Highs State Lows

Community

WunderPhotos

Upload Photos

1,927,039 photos uploaded!

WunderBlog® & News

Nearby

Air Quality

  Air Quality AQ Index Pollutant
Not available.

Snow Depth

Station Depth Elevation

Earthquake Activity

City Distance Mag. Time & Date
Minimum magnitude displayed is 2.5.

Coastal Water Temperatures

Place Temperature

Stations

Nearby Weather Stations

Station Location Temp. Windchill Dew Point Humidity Wind Precip. Elev Updated Type
                   

Watches & Warnings

There are currently no watches in effect.